Time;durP1;ratioP1;P1;durP2;ratioP2;P2;SDS_P1;SDS_P2;PMS_P1;PMS_P2;Temp;Humidity;BMP_temperature;BMP_pressure;BME280_temperature;BME280_humidity;BME280_pressure;Samples;Min_cycle;Max_cycle;Signal;HPM_P1;HPM_P2
2022/11/23 06:13:11;;;;;;;;;;;;;;;9.30;64.84;95594.34;4240003;27;10329;-67
2022/11/23 06:15:13;;;;;;;;;;;;;;;9.60;64.54;95604.25;4240337;27;5641;-73
2022/11/23 06:17:16;;;;;;;;;;;;;;;9.79;63.83;95597.19;4248787;27;5796;-71
2022/11/23 06:19:19;;;;;;;;;;;;;;;9.98;63.85;95605.97;4241275;27;5814;-70
2022/11/23 06:21:22;;;;;;;;;;;;;;;10.06;63.35;95609.09;4243681;27;5828;-66
2022/11/23 06:23:25;;;;;;;;;;;;;;;10.17;62.81;95603.09;4235519;27;5668;-66
2022/11/23 06:25:27;;;;;;;;;;;;;;;10.27;62.96;95605.28;4248248;27;5827;-72
2022/11/23 06:27:30;;;;;;;;;;;;;;;10.36;62.78;95605.78;4240447;27;5613;-71
2022/11/23 06:29:34;;;;;;;;;;;;;;;10.42;62.19;95608.38;4251399;27;5077;-74
2022/11/23 06:31:37;;;;;;;;;;;;;;;10.45;62.40;95607.13;4248009;27;7651;-67
2022/11/23 06:33:40;;;;;;;;;;;;;;;10.46;62.22;95609.53;4239052;27;5604;-71
2022/11/23 06:35:52;;;;;;;;;;;;;;;10.47;62.28;95616.44;4244671;27;5598;-74
2022/11/23 06:37:56;;;;;;;;;;;;;;;10.48;62.22;95620.69;4239901;27;5808;-71
2022/11/23 06:39:58;;;;;;;;;;;;;;;10.52;61.86;95620.25;4240890;27;5878;-70
2022/11/23 06:42:01;;;;;;;;;;;;;;;10.52;62.00;95625.53;4230623;28;5633;-68
2022/11/23 06:44:25;;;;;;;;;;;;;;;10.55;61.90;95639.13;4240051;27;6059;-71
2022/11/23 06:46:29;;;;;;;;;;;;;;;10.60;61.63;95641.09;4231598;28;5627;-66
2022/11/23 06:48:31;;;;;;;;;;;;;;;10.60;61.47;95641.91;4243446;27;5586;-75
2022/11/23 06:50:34;;;;;;;;;;;;;;;10.61;61.35;95643.50;4247674;27;6371;-74
2022/11/23 06:52:37;;;;;;;;;;;;;;;10.65;61.08;95646.53;4247694;27;5685;-74
2022/11/23 06:54:40;;;;;;;;;;;;;;;10.64;61.18;95647.53;4239861;27;5613;-70
2022/11/23 06:56:42;;;;;;;;;;;;;;;10.65;61.00;95649.19;4248665;27;5609;-71
2022/11/23 06:58:45;;;;;;;;;;;;;;;10.65;61.29;95649.19;4247990;27;5673;-73
2022/11/23 07:00:48;;;;;;;;;;;;;;;10.66;61.15;95658.72;4238101;27;5509;-74
2022/11/23 07:02:54;;;;;;;;;;;;;;;10.65;60.81;95657.91;4243133;27;5707;-74
2022/11/23 07:04:56;;;;;;;;;;;;;;;10.70;61.05;95659.88;4233925;27;5796;-66
2022/11/23 07:06:59;;;;;;;;;;;;;;;10.67;60.54;95658.50;4238543;27;5850;-74
2022/11/23 07:09:02;;;;;;;;;;;;;;;10.69;60.76;95663.56;4239444;27;6789;-74
2022/11/23 07:11:06;;;;;;;;;;;;;;;10.69;60.49;95668.84;4247535;27;5649;-72
2022/11/23 07:13:10;;;;;;;;;;;;;;;10.73;60.27;95670.81;4237810;27;5081;-68
2022/11/23 07:15:13;;;;;;;;;;;;;;;10.73;60.39;95667.38;4245177;27;5617;-72
2022/11/23 07:17:17;;;;;;;;;;;;;;;10.76;60.14;95667.75;4252152;27;5715;-73
2022/11/23 07:19:21;;;;;;;;;;;;;;;10.75;60.36;95666.09;4226283;27;5795;-67
2022/11/23 07:21:24;;;;;;;;;;;;;;;10.79;60.16;95674.41;4224395;27;5669;-73
2022/11/23 07:23:27;;;;;;;;;;;;;;;10.82;60.11;95666.03;4242213;27;5602;-73
2022/11/23 07:25:32;;;;;;;;;;;;;;;10.82;60.09;95668.69;4236643;28;5602;-72
2022/11/23 07:27:35;;;;;;;;;;;;;;;10.83;60.13;95666.84;4236650;28;5716;-69
2022/11/23 07:29:38;;;;;;;;;;;;;;;10.83;60.22;95667.66;4235147;28;6301;-73
2022/11/23 07:31:41;;;;;;;;;;;;;;;10.81;60.07;95664.44;4231322;28;5513;-73
2022/11/23 07:33:45;;;;;;;;;;;;;;;10.82;60.22;95675.81;4229575;28;5723;-72
2022/11/23 07:35:49;;;;;;;;;;;;;;;10.83;59.93;95678.22;4222506;28;5795;-68
2022/11/23 07:37:52;;;;;;;;;;;;;;;10.84;59.96;95671.91;4228693;28;5605;-73
2022/11/23 07:39:55;;;;;;;;;;;;;;;10.88;59.68;95672.28;4234351;28;5625;-73
2022/11/23 07:42:00;;;;;;;;;;;;;;;10.88;59.80;95677.59;4235910;28;5625;-67
2022/11/23 07:44:22;;;;;;;;;;;;;;;10.91;59.41;95679.78;4242109;27;5646;-74
2022/11/23 07:46:25;;;;;;;;;;;;;;;10.89;59.48;95682.66;4225891;28;5739;-70
2022/11/23 07:48:28;;;;;;;;;;;;;;;10.90;59.27;95678.16;4224604;28;5833;-66
2022/11/23 07:50:39;;;;;;;;;;;;;;;10.90;59.55;95678.16;4227899;27;5765;-67
2022/11/23 07:52:43;;;;;;;;;;;;;;;10.90;59.41;95678.97;4252914;27;5665;-73
2022/11/23 07:54:46;;;;;;;;;;;;;;;10.87;59.39;95676.75;4225417;27;5668;-72
2022/11/23 07:56:49;;;;;;;;;;;;;;;10.87;59.60;95678.59;4221703;28;5726;-69
2022/11/23 07:58:52;;;;;;;;;;;;;;;10.84;59.61;95674.56;4218721;28;5677;-69
2022/11/23 08:00:55;;;;;;;;;;;;;;;10.84;59.48;95681.69;4225867;28;5597;-71
2022/11/23 08:02:58;;;;;;;;;;;;;;;10.85;59.37;95681.44;4235946;27;5682;-71
2022/11/23 08:05:22;;;;;;;;;;;;;;;10.85;59.05;95686.75;4229393;28;5590;-73
2022/11/23 08:07:25;;;;;;;;;;;;;;;10.81;59.31;95680.28;4227016;28;5731;-73
2022/11/23 08:09:29;;;;;;;;;;;;;;;10.82;58.96;95681.91;4236296;27;5669;-73
2022/11/23 08:11:32;;;;;;;;;;;;;;;10.81;59.19;95690.06;4224902;28;5744;-67
2022/11/23 08:13:36;;;;;;;;;;;;;;;10.79;59.23;95688.44;4234464;28;5602;-66
2022/11/23 08:15:38;;;;;;;;;;;;;;;10.82;59.06;95689.84;4228863;28;5594;-67
2022/11/23 08:17:41;;;;;;;;;;;;;;;10.83;59.09;95693.28;4235525;28;5598;-66
2022/11/23 08:19:44;;;;;;;;;;;;;;;10.84;58.92;95695.69;4233686;28;5796;-67
2022/11/23 08:21:47;;;;;;;;;;;;;;;10.86;58.92;95692.84;4226269;28;5606;-66
2022/11/23 08:23:50;;;;;;;;;;;;;;;10.85;58.62;95705.25;4231384;28;5605;-67
2022/11/23 08:25:54;;;;;;;;;;;;;;;10.85;58.56;95705.25;4234409;28;5590;-66
2022/11/23 08:27:58;;;;;;;;;;;;;;;10.87;58.83;95697.91;4234514;28;5617;-66
2022/11/23 08:30:03;;;;;;;;;;;;;;;10.85;58.87;95707.09;4235002;28;5618;-66
2022/11/23 08:32:06;;;;;;;;;;;;;;;10.87;58.63;95708.47;4240272;27;5572;-66
2022/11/23 08:34:09;;;;;;;;;;;;;;;10.87;58.76;95713.75;4238164;27;5139;-66
2022/11/23 08:36:12;;;;;;;;;;;;;;;10.88;58.51;95709.31;4235411;27;5661;-66
2022/11/23 08:38:15;;;;;;;;;;;;;;;10.85;58.73;95718.47;4229710;28;5578;-66
2022/11/23 08:40:21;;;;;;;;;;;;;;;10.88;58.44;95719.88;4232463;28;6493;-66
2022/11/23 08:42:28;;;;;;;;;;;;;;;10.87;58.36;95724.34;4233826;28;5669;-66
2022/11/23 08:44:31;;;;;;;;;;;;;;;10.88;58.37;95723.34;4232742;28;5529;-66
2022/11/23 08:46:35;;;;;;;;;;;;;;;10.92;58.20;95727.13;4227553;28;5529;-67
2022/11/23 08:48:38;;;;;;;;;;;;;;;10.97;58.20;95731.75;4228575;28;5772;-66
2022/11/23 08:50:41;;;;;;;;;;;;;;;11.00;58.48;95729.50;4227467;28;5590;-66
2022/11/23 08:52:43;;;;;;;;;;;;;;;11.02;58.26;95732.72;4228737;28;5755;-67
2022/11/23 08:54:46;;;;;;;;;;;;;;;11.03;57.99;95721.13;4229216;28;5688;-66
2022/11/23 08:56:49;;;;;;;;;;;;;;;11.04;58.28;95722.72;4220261;28;5728;-65
2022/11/23 08:58:53;;;;;;;;;;;;;;;11.02;58.02;95727.44;4230448;27;5591;-65
2022/11/23 09:00:56;;;;;;;;;;;;;;;11.00;58.25;95726.84;4231766;27;5682;-66
2022/11/23 09:02:59;;;;;;;;;;;;;;;11.00;57.88;95733.97;4234603;27;5599;-65
2022/11/23 09:05:04;;;;;;;;;;;;;;;11.03;58.03;95736.97;4219179;27;5657;-65
2022/11/23 09:07:07;;;;;;;;;;;;;;;11.08;57.94;95728.38;4226363;28;5819;-66
2022/11/23 09:09:10;;;;;;;;;;;;;;;11.13;57.86;95730.38;4226534;28;5598;-66
2022/11/23 09:11:13;;;;;;;;;;;;;;;11.17;57.54;95727.03;4227688;28;5680;-66
2022/11/23 09:13:16;;;;;;;;;;;;;;;11.14;57.82;95726.69;4236758;27;5665;-66
2022/11/23 09:15:21;;;;;;;;;;;;;;;11.15;57.77;95729.09;4219369;28;5811;-66
2022/11/23 09:17:23;;;;;;;;;;;;;;;11.16;57.72;95727.28;4240327;27;5583;-67
2022/11/23 09:19:26;;;;;;;;;;;;;;;11.16;57.89;95735.22;4240075;27;5765;-66
2022/11/23 09:21:32;;;;;;;;;;;;;;;11.16;57.87;95735.22;4234389;27;5864;-66
2022/11/23 09:23:35;;;;;;;;;;;;;;;11.16;57.57;95735.22;4230649;27;5754;-66
2022/11/23 09:25:37;;;;;;;;;;;;;;;11.17;57.31;95731.53;4223901;28;5705;-68
2022/11/23 09:27:40;;;;;;;;;;;;;;;11.18;57.53;95738.44;4230596;28;5717;-68
2022/11/23 09:29:43;;;;;;;;;;;;;;;11.16;57.48;95729.91;4228892;28;5616;-68
2022/11/23 09:31:47;;;;;;;;;;;;;;;11.16;57.27;95735.22;4227950;28;5703;-69
2022/11/23 09:33:52;;;;;;;;;;;;;;;11.13;57.62;95739.13;4218334;27;6343;-70
2022/11/23 09:35:59;;;;;;;;;;;;;;;11.12;57.43;95736.69;4216942;28;5760;-69
2022/11/23 09:38:01;;;;;;;;;;;;;;;11.14;57.50;95738.06;4225599;28;5677;-69
2022/11/23 09:40:06;;;;;;;;;;;;;;;11.15;57.38;95741.53;4233638;27;5599;-67
2022/11/23 09:42:37;;;;;;;;;;;;;;;11.16;57.23;95736.00;4236878;27;5805;-66
2022/11/23 09:45:05;;;;;;;;;;;;;;;11.19;57.09;95737.41;4222849;28;5594;-65
2022/11/23 09:47:25;;;;;;;;;;;;;;;11.20;57.15;95739.00;4232659;27;5669;-76
2022/11/23 09:49:33;;;;;;;;;;;;;;;11.19;57.05;95734.75;4220556;27;5824;-74
2022/11/23 09:51:38;;;;;;;;;;;;;;;11.16;57.25;95730.72;4221116;28;5688;-72
2022/11/23 09:53:46;;;;;;;;;;;;;;;11.19;56.96;95729.47;4226665;27;5923;-84
2022/11/23 09:55:51;;;;;;;;;;;;;;;11.18;57.07;95730.50;4222942;27;5674;-73
2022/11/23 09:58:01;;;;;;;;;;;;;;;11.19;57.01;95726.81;4228608;28;5776;-80
2022/11/23 10:00:07;;;;;;;;;;;;;;;11.19;56.92;95729.47;4228458;27;5610;-70
2022/11/23 10:02:19;;;;;;;;;;;;;;;11.20;56.91;95723.13;4231940;28;5609;-76
2022/11/23 10:04:23;;;;;;;;;;;;;;;11.22;56.85;95724.56;4226408;27;5598;-77
2022/11/23 10:06:30;;;;;;;;;;;;;;;11.26;56.74;95722.25;4227583;27;5832;-77
2022/11/23 10:08:44;;;;;;;;;;;;;;;11.28;56.71;95728.94;4225699;27;5078;-78
2022/11/23 10:10:57;;;;;;;;;;;;;;;11.27;56.81;95719.38;4233894;27;5604;-77
2022/11/23 10:13:15;;;;;;;;;;;;;;;11.32;56.82;95718.72;4226335;27;5765;-77
2022/11/23 10:15:24;;;;;;;;;;;;;;;11.27;56.66;95715.94;4225241;28;5890;-77
2022/11/23 10:17:47;;;;;;;;;;;;;;;11.26;56.71;95715.13;4231058;27;6596;-76
2022/11/23 10:20:05;;;;;;;;;;;;;;;11.25;56.55;95712.72;4234434;27;5631;-77
2022/11/23 10:22:16;;;;;;;;;;;;;;;11.25;56.28;95713.53;4231370;28;5709;-77
2022/11/23 10:24:23;;;;;;;;;;;;;;;11.24;56.31;95708.47;4233355;28;5606;-79
2022/11/23 10:26:32;;;;;;;;;;;;;;;11.24;56.44;95711.91;4231837;28;5839;-77
2022/11/23 10:28:39;;;;;;;;;;;;;;;11.25;56.38;95710.06;4224718;28;5657;-77
2022/11/23 10:30:42;;;;;;;;;;;;;;;11.25;56.47;95697.66;4226788;28;5720;-77
2022/11/23 10:32:51;;;;;;;;;;;;;;;11.28;56.30;95706.97;4223347;28;5677;-77
2022/11/23 10:35:03;;;;;;;;;;;;;;;11.29;56.17;95713.88;4241083;27;5680;-77
2022/11/23 10:37:10;;;;;;;;;;;;;;;11.29;56.22;95703.28;4242285;27;5583;-77
2022/11/23 10:39:22;;;;;;;;;;;;;;;11.30;56.19;95702.25;4234083;27;5678;-78
2022/11/23 10:41:25;;;;;;;;;;;;;;;11.28;56.27;95706.97;4223466;27;6345;-78
2022/11/23 10:43:33;;;;;;;;;;;;;;;11.26;55.81;95699.25;4244064;27;5665;-77
2022/11/23 10:45:36;;;;;;;;;;;;;;;11.29;55.90;95705.94;4211587;28;5698;-77
2022/11/23 10:47:42;;;;;;;;;;;;;;;11.33;55.65;95696.53;4241829;27;5619;-77
2022/11/23 10:49:57;;;;;;;;;;;;;;;11.35;55.98;95700.56;4234003;28;5705;-77
2022/11/23 10:52:04;;;;;;;;;;;;;;;11.35;55.85;95697.13;4221065;27;5675;-78
2022/11/23 10:54:19;;;;;;;;;;;;;;;11.38;55.56;95696.66;4245468;27;5661;-78
2022/11/23 10:56:23;;;;;;;;;;;;;;;11.36;55.74;95696.88;4239104;27;5603;-77
2022/11/23 10:58:27;;;;;;;;;;;;;;;11.42;55.38;95703.09;4226872;28;5696;-78
2022/11/23 11:00:30;;;;;;;;;;;;;;;11.44;55.41;95694.94;4225816;28;5856;-78
2022/11/23 11:02:40;;;;;;;;;;;;;;;11.42;55.24;95703.09;4236637;27;5665;-77
2022/11/23 11:04:43;;;;;;;;;;;;;;;11.44;55.03;95695.78;4241787;27;5172;-78
2022/11/23 11:06:47;;;;;;;;;;;;;;;11.44;55.43;95690.47;4239758;27;7699;-78
2022/11/23 11:08:52;;;;;;;;;;;;;;;11.45;55.23;95692.09;4219634;28;5787;-78
2022/11/23 11:10:58;;;;;;;;;;;;;;;11.48;55.27;95702.22;4219830;27;6086;-79
2022/11/23 11:13:01;;;;;;;;;;;;;;;11.49;55.06;95687.94;4209017;28;5649;-79
2022/11/23 11:15:16;;;;;;;;;;;;;;;11.49;54.94;95687.16;4220067;28;5684;-77
2022/11/23 11:17:26;;;;;;;;;;;;;;;11.52;54.91;95689.34;4204738;28;5669;-77
2022/11/23 11:19:31;;;;;;;;;;;;;;;11.54;55.10;95695.19;4211313;28;5793;-78
2022/11/23 11:21:37;;;;;;;;;;;;;;;11.52;54.77;95691.97;4202972;28;5722;-77
2022/11/23 11:23:52;;;;;;;;;;;;;;;11.52;54.86;95686.69;4202651;28;5700;-78
2022/11/23 11:26:08;;;;;;;;;;;;;;;11.53;54.57;95681.16;4191044;28;5825;-73
2022/11/23 11:28:22;;;;;;;;;;;;;;;11.55;54.69;95680.94;4193649;28;5785;-72
2022/11/23 11:30:28;;;;;;;;;;;;;;;11.55;54.52;95684.41;4206156;28;5928;-73
2022/11/23 11:32:40;;;;;;;;;;;;;;;11.54;54.34;95685.41;4197199;28;5864;-72
2022/11/23 11:34:47;;;;;;;;;;;;;;;11.57;54.74;95684.19;4203741;28;5661;-73
2022/11/23 11:36:58;;;;;;;;;;;;;;;11.57;54.41;95673.59;4197262;28;5762;-72
2022/11/23 11:39:13;;;;;;;;;;;;;;;11.56;54.33;95682.56;4213262;28;5831;-72
2022/11/23 11:41:24;;;;;;;;;;;;;;;11.61;54.18;95682.69;4210758;28;6015;-73
2022/11/23 11:43:31;;;;;;;;;;;;;;;11.58;54.05;95689.25;4205386;28;6019;-72
2022/11/23 11:45:45;;;;;;;;;;;;;;;11.59;54.19;95685.56;4196648;28;5789;-72
2022/11/23 11:48:13;;;;;;;;;;;;;;;11.62;54.07;95682.47;4194877;28;5710;-73
2022/11/23 11:50:23;;;;;;;;;;;;;;;11.67;54.04;95676.50;4199995;28;5820;-72
2022/11/23 11:52:38;;;;;;;;;;;;;;;11.66;54.03;95686.28;4203596;28;5695;-72
2022/11/23 11:54:50;;;;;;;;;;;;;;;11.69;53.82;95689.50;4202097;28;5785;-73
2022/11/23 11:56:57;;;;;;;;;;;;;;;11.71;53.91;95684.78;4204605;28;5733;-73
2022/11/23 11:59:09;;;;;;;;;;;;;;;11.73;53.75;95682.72;4209042;28;5689;-73
2022/11/23 12:01:22;;;;;;;;;;;;;;;11.73;53.36;95682.72;4209034;28;6084;-73
2022/11/23 12:03:36;;;;;;;;;;;;;;;11.76;53.76;95679.59;4195488;28;6526;-73
2022/11/23 12:05:46;;;;;;;;;;;;;;;11.76;53.24;95671.66;4201734;28;5678;-84
2022/11/23 12:07:57;;;;;;;;;;;;;;;11.75;53.52;95678.00;4203287;28;5690;-70
2022/11/23 12:10:06;;;;;;;;;;;;;;;11.77;53.54;95674.09;4209608;28;5714;-70
2022/11/23 12:12:16;;;;;;;;;;;;;;;11.80;53.23;95681.63;4215639;27;5688;-69
2022/11/23 12:14:19;;;;;;;;;;;;;;;11.82;53.35;95673.44;4235381;27;5688;-70
2022/11/23 12:16:30;;;;;;;;;;;;;;;11.83;53.04;95675.06;4245528;27;5673;-69
2022/11/23 12:18:47;;;;;;;;;;;;;;;11.82;53.32;95676.91;4224001;27;5610;-75
2022/11/23 12:21:00;;;;;;;;;;;;;;;11.85;52.90;95678.28;4222761;27;5720;-74
2022/11/23 12:23:17;;;;;;;;;;;;;;;11.86;53.05;95678.03;4226696;27;5598;-74
2022/11/23 12:25:35;;;;;;;;;;;;;;;11.87;53.20;95668.25;4224093;28;6303;-76
2022/11/23 12:27:47;;;;;;;;;;;;;;;11.87;53.06;95666.41;4232732;27;5857;-74
2022/11/23 12:30:03;;;;;;;;;;;;;;;11.87;52.92;95669.06;4233884;27;5673;-72
2022/11/23 12:32:19;;;;;;;;;;;;;;;11.89;53.11;95660.88;4232370;27;5602;-73
2022/11/23 12:34:39;;;;;;;;;;;;;;;11.90;52.95;95659.88;4225279;27;6296;-77
2022/11/23 12:37:13;;;;;;;;;;;;;;;11.91;53.26;95664.16;4236000;27;5630;-73
2022/11/23 12:39:33;;;;;;;;;;;;;;;11.91;52.60;95656.19;4205909;28;5601;-66
2022/11/23 12:41:51;;;;;;;;;;;;;;;11.91;52.59;95650.91;4222905;27;5728;-75
2022/11/23 12:44:17;;;;;;;;;;;;;;;11.93;52.75;95657.56;4229443;27;5602;-75
2022/11/23 12:46:28;;;;;;;;;;;;;;;11.92;52.65;95660.44;4233243;27;5611;-75
2022/11/23 12:48:52;;;;;;;;;;;;;;;11.90;52.58;95657.22;4225156;27;5831;-74
2022/11/23 12:51:04;;;;;;;;;;;;;;;11.92;52.57;95663.09;4228980;27;5085;-76
2022/11/23 12:53:26;;;;;;;;;;;;;;;11.94;52.78;95658.38;4224439;27;6406;-77
2022/11/23 12:55:43;;;;;;;;;;;;;;;11.94;52.44;95643.28;4233922;27;5685;-78
2022/11/23 12:57:55;;;;;;;;;;;;;;;11.93;52.25;95649.63;4208518;28;5651;-78
2022/11/23 13:00:03;;;;;;;;;;;;;;;11.90;52.28;95644.00;4215522;28;5676;-77
2022/11/23 13:02:15;;;;;;;;;;;;;;;11.88;52.44;95649.50;4218248;28;5680;-78
2022/11/23 13:04:54;;;;;;;;;;;;;;;11.91;52.43;95642.97;4223273;28;5800;-84
2022/11/23 13:07:23;;;;;;;;;;;;;;;11.92;52.59;95645.38;4210234;27;5783;-81
2022/11/23 13:10:06;;;;;;;;;;;;;;;11.93;52.63;95657.56;4226404;27;5594;-81
2022/11/23 13:12:28;;;;;;;;;;;;;;;11.93;52.32;95654.13;4216674;27;5780;-81
2022/11/23 13:14:43;;;;;;;;;;;;;;;11.95;52.20;95644.91;4218839;27;5788;-82
2022/11/23 13:17:09;;;;;;;;;;;;;;;11.95;52.17;95644.09;4226476;28;5776;-79
2022/11/23 13:19:26;;;;;;;;;;;;;;;11.93;52.11;95651.47;4221485;27;5787;-82
2022/11/23 13:21:35;;;;;;;;;;;;;;;11.93;52.26;95648.81;4212798;28;5706;-83
2022/11/23 13:23:39;;;;;;;;;;;;;;;11.93;52.42;95654.13;4227658;27;5681;-83
2022/11/23 13:26:14;;;;;;;;;;;;;;;11.89;52.41;95645.00;4218414;28;5677;-81
2022/11/23 13:28:30;;;;;;;;;;;;;;;11.88;52.21;95646.03;4219058;28;6353;-81
2022/11/23 13:30:36;;;;;;;;;;;;;;;11.89;52.37;95650.28;4229850;28;5598;-79
2022/11/23 13:33:02;;;;;;;;;;;;;;;11.89;52.41;95655.59;4220413;27;5164;-84
2022/11/23 13:35:44;;;;;;;;;;;;;;;11.89;52.32;95667.03;4244353;27;7675;-83
2022/11/23 13:38:18;;;;;;;;;;;;;;;11.88;52.38;95669.88;4223297;28;6373;-84
2022/11/23 13:40:24;;;;;;;;;;;;;;;11.88;52.25;95675.16;4227476;27;5772;-84
2022/11/23 13:42:31;;;;;;;;;;;;;;;11.84;52.14;95671.38;4235461;27;5594;-83
2022/11/23 13:44:34;;;;;;;;;;;;;;;11.86;52.35;95687.84;4227468;28;5724;-84
2022/11/23 13:46:39;;;;;;;;;;;;;;;11.85;52.10;95686.22;4228013;27;5673;-81
2022/11/23 13:48:44;;;;;;;;;;;;;;;11.85;52.30;95678.28;4226277;28;5777;-82
2022/11/23 13:51:02;;;;;;;;;;;;;;;11.85;52.36;95675.63;4226161;28;5927;-80
2022/11/23 13:53:21;;;;;;;;;;;;;;;11.87;52.07;95682.31;4217934;27;5677;-82
2022/11/23 13:55:34;;;;;;;;;;;;;;;11.87;52.39;95673.56;4204453;28;6325;-74
2022/11/23 13:57:38;;;;;;;;;;;;;;;11.85;52.17;95679.09;4227145;27;5600;-75
2022/11/23 13:59:41;;;;;;;;;;;;;;;11.88;52.44;95672.53;4237156;27;5734;-78
2022/11/23 14:02:26;;;;;;;;;;;;;;;11.89;52.36;95679.44;4219523;28;5684;-78
2022/11/23 14:04:31;;;;;;;;;;;;;;;11.91;52.45;95680.03;4225180;28;5680;-77
2022/11/23 14:06:44;;;;;;;;;;;;;;;11.89;52.31;95680.25;4219468;28;5660;-82
2022/11/23 14:08:51;;;;;;;;;;;;;;;11.90;52.52;95683.72;4223312;27;5632;-78
2022/11/23 14:10:56;;;;;;;;;;;;;;;11.90;52.35;95673.94;4227477;27;5693;-81
2022/11/23 14:13:04;;;;;;;;;;;;;;;11.91;52.22;95677.38;4233811;28;5926;-81
2022/11/23 14:15:13;;;;;;;;;;;;;;;11.90;52.38;95673.94;4228046;27;5108;-84
2022/11/23 14:17:37;;;;;;;;;;;;;;;11.88;52.60;95675.16;4238740;27;5723;-74
2022/11/23 14:19:54;;;;;;;;;;;;;;;11.86;52.50;95686.00;4222324;27;6571;-73
2022/11/23 14:22:07;;;;;;;;;;;;;;;11.83;52.47;95694.41;4219097;28;5759;-73
2022/11/23 14:24:27;;;;;;;;;;;;;;;11.83;52.58;95689.09;4227638;27;5617;-82
2022/11/23 14:26:38;;;;;;;;;;;;;;;11.84;52.87;95684.63;4221594;27;5657;-77
2022/11/23 14:28:54;;;;;;;;;;;;;;;11.84;52.68;95684.63;4234534;28;5598;-78
2022/11/23 14:31:11;;;;;;;;;;;;;;;11.83;52.62;95680.34;4233790;27;5727;-75
2022/11/23 14:33:27;;;;;;;;;;;;;;;11.84;52.64;95680.13;4218029;28;5625;-76
2022/11/23 14:35:33;;;;;;;;;;;;;;;11.87;53.09;95678.84;4224959;27;5791;-80
2022/11/23 14:37:48;;;;;;;;;;;;;;;11.86;53.16;95667.47;4232543;27;5689;-74
2022/11/23 14:40:03;;;;;;;;;;;;;;;11.87;52.81;95678.84;4222721;27;5700;-76
2022/11/23 14:42:11;;;;;;;;;;;;;;;11.87;53.07;95684.16;4225650;27;5719;-76
2022/11/23 14:44:24;;;;;;;;;;;;;;;11.88;53.17;95688.41;4222247;27;6473;-75
2022/11/23 14:46:29;;;;;;;;;;;;;;;11.87;53.04;95684.97;4241316;27;5749;-75
2022/11/23 14:48:35;;;;;;;;;;;;;;;11.86;53.03;95672.75;4215161;28;5613;-80
2022/11/23 14:50:39;;;;;;;;;;;;;;;11.85;53.37;95683.56;4236674;27;5610;-76
2022/11/23 14:52:41;;;;;;;;;;;;;;;11.82;53.25;95687.50;4233546;27;5575;-75
2022/11/23 14:54:48;;;;;;;;;;;;;;;11.84;53.30;95689.91;4225919;27;5673;-73
2022/11/23 14:56:53;;;;;;;;;;;;;;;11.82;53.50;95682.19;4237033;27;5756;-75
2022/11/23 14:59:02;;;;;;;;;;;;;;;11.83;53.72;95685.66;4228517;27;5606;-75
2022/11/23 15:01:21;;;;;;;;;;;;;;;11.81;53.53;95687.72;4244927;27;5703;-77
2022/11/23 15:03:28;;;;;;;;;;;;;;;11.79;53.81;95687.13;4227545;28;5704;-73
2022/11/23 15:05:55;;;;;;;;;;;;;;;11.80;53.80;95710.75;4219079;27;5835;-77
2022/11/23 15:08:02;;;;;;;;;;;;;;;11.80;53.74;95728.47;4234458;27;5688;-74
2022/11/23 15:10:16;;;;;;;;;;;;;;;11.80;54.12;95731.13;4223831;27;5707;-80
2022/11/23 15:12:22;;;;;;;;;;;;;;;11.80;54.12;95725.84;4231621;27;5621;-75
2022/11/23 15:14:26;;;;;;;;;;;;;;;11.78;54.13;95723.38;4223110;27;5810;-85
2022/11/23 15:16:29;;;;;;;;;;;;;;;11.76;54.50;95743.97;4228284;28;5853;-77
2022/11/23 15:18:34;;;;;;;;;;;;;;;11.74;54.51;95753.97;4230568;27;5113;-76
2022/11/23 15:20:43;;;;;;;;;;;;;;;11.74;54.59;95747.88;4227686;27;5744;-76
2022/11/23 15:22:49;;;;;;;;;;;;;;;11.75;54.43;95755.59;4232872;27;6327;-75
2022/11/23 15:24:52;;;;;;;;;;;;;;;11.75;54.64;95770.66;4230546;28;5465;-74
2022/11/23 15:27:04;;;;;;;;;;;;;;;11.72;54.73;95761.34;4226934;27;7215;-71
2022/11/23 15:29:29;;;;;;;;;;;;;;;11.72;55.04;95782.53;4223085;27;5981;-73
2022/11/23 15:31:34;;;;;;;;;;;;;;;11.72;55.12;95776.41;4226176;27;5712;-70
2022/11/23 15:33:38;;;;;;;;;;;;;;;11.69;55.36;95782.16;4236029;27;5832;-84
2022/11/23 15:35:41;;;;;;;;;;;;;;;11.70;55.44;95767.91;4231121;27;5694;-74
2022/11/23 15:37:48;;;;;;;;;;;;;;;11.70;55.57;95789.09;4229696;27;5853;-79
2022/11/23 15:39:52;;;;;;;;;;;;;;;11.68;55.08;95785.84;4229579;27;5703;-71
2022/11/23 15:41:56;;;;;;;;;;;;;;;11.68;55.42;95785.84;4226788;27;5755;-65
2022/11/23 15:44:00;;;;;;;;;;;;;;;11.66;55.74;95800.13;4228285;27;5835;-64
2022/11/23 15:46:11;;;;;;;;;;;;;;;11.68;55.63;95815.78;4230888;27;5837;-65
2022/11/23 15:48:17;;;;;;;;;;;;;;;11.68;55.93;95817.63;4230102;27;5921;-64
2022/11/23 15:50:20;;;;;;;;;;;;;;;11.67;55.79;95843.28;4231088;27;5856;-64
2022/11/23 15:52:22;;;;;;;;;;;;;;;11.67;55.56;95859.19;4241128;27;5583;-64
2022/11/23 15:54:33;;;;;;;;;;;;;;;11.66;56.03;95871.59;4230993;27;5598;-64
2022/11/23 15:56:39;;;;;;;;;;;;;;;11.67;55.79;95888.31;4226396;27;5669;-64
2022/11/23 15:58:47;;;;;;;;;;;;;;;11.69;56.24;95883.59;4218080;27;5668;-64
2022/11/23 16:00:53;;;;;;;;;;;;;;;11.71;56.08;95888.66;4232118;27;5703;-65
2022/11/23 16:03:21;;;;;;;;;;;;;;;11.70;56.51;95889.69;4225932;27;5728;-65
2022/11/23 16:05:24;;;;;;;;;;;;;;;11.70;56.37;95913.50;4226408;27;5751;-65
2022/11/23 16:07:27;;;;;;;;;;;;;;;11.66;56.38;95937.78;4234587;27;5821;-65
2022/11/23 16:09:37;;;;;;;;;;;;;;;11.67;56.64;95930.66;4234554;27;5597;-64
2022/11/23 16:11:56;;;;;;;;;;;;;;;11.66;56.71;95937.78;4230169;28;5594;-64
2022/11/23 16:14:13;;;;;;;;;;;;;;;11.68;56.53;95923.53;4219158;28;5669;-63
2022/11/23 16:16:19;;;;;;;;;;;;;;;11.70;56.81;95926.75;4226217;27;5597;-64
2022/11/23 16:18:26;;;;;;;;;;;;;;;11.70;56.72;95916.16;4218626;27;5684;-64
2022/11/23 16:20:31;;;;;;;;;;;;;;;11.71;56.86;95933.66;4212057;28;5700;-65
2022/11/23 16:22:38;;;;;;;;;;;;;;;11.72;56.94;95937.94;4229966;27;6215;-64
2022/11/23 16:24:49;;;;;;;;;;;;;;;11.71;57.24;95953.00;4231537;27;5681;-64
2022/11/23 16:26:53;;;;;;;;;;;;;;;11.72;57.12;95944.03;4236626;27;5665;-64
2022/11/23 16:28:58;;;;;;;;;;;;;;;11.70;57.34;95964.63;4231866;27;5753;-64
2022/11/23 16:31:01;;;;;;;;;;;;;;;11.71;57.48;95976.03;4228083;27;5793;-66
2022/11/23 16:33:04;;;;;;;;;;;;;;;11.72;57.41;95977.66;4223726;27;5703;-65
2022/11/23 16:35:16;;;;;;;;;;;;;;;11.73;57.38;95973.97;4231710;27;5598;-65
2022/11/23 16:37:19;;;;;;;;;;;;;;;11.71;57.30;95971.53;4236041;27;5629;-65
2022/11/23 16:39:23;;;;;;;;;;;;;;;11.69;57.58;95960.38;4233715;27;5601;-65
2022/11/23 16:41:27;;;;;;;;;;;;;;;11.70;57.74;95979.72;4235598;27;5864;-65
2022/11/23 16:43:30;;;;;;;;;;;;;;;11.70;57.79;95985.00;4226490;27;6219;-65
2022/11/23 16:45:34;;;;;;;;;;;;;;;11.66;58.21;95990.75;4227436;27;5780;-67
2022/11/23 16:47:51;;;;;;;;;;;;;;;11.64;58.36;95990.13;4227186;27;5775;-65
2022/11/23 16:49:54;;;;;;;;;;;;;;;11.58;58.33;95993.66;4225717;27;5574;-65
2022/11/23 16:51:57;;;;;;;;;;;;;;;11.55;58.49;95994.13;4227340;27;5669;-65
2022/11/23 16:54:00;;;;;;;;;;;;;;;11.54;58.54;96008.34;4225462;28;5802;-66
2022/11/23 16:56:19;;;;;;;;;;;;;;;11.52;58.54;96021.00;4227474;28;5676;-63
2022/11/23 16:58:24;;;;;;;;;;;;;;;11.54;58.57;96034.81;4223306;27;5844;-63
2022/11/23 17:00:27;;;;;;;;;;;;;;;11.61;58.47;96045.34;4223405;27;6761;-64
2022/11/23 17:02:30;;;;;;;;;;;;;;;11.64;58.57;96045.72;4221771;27;5838;-64
2022/11/23 17:04:33;;;;;;;;;;;;;;;11.68;58.72;96058.56;4228581;27;5677;-64
2022/11/23 17:06:36;;;;;;;;;;;;;;;11.68;58.37;96045.31;4224423;27;5596;-64
2022/11/23 17:08:38;;;;;;;;;;;;;;;11.65;58.63;96036.75;4221742;27;5598;-64
2022/11/23 17:10:42;;;;;;;;;;;;;;;11.63;58.94;96038.81;4229090;27;5688;-63
2022/11/23 17:12:49;;;;;;;;;;;;;;;11.63;58.54;96044.09;4228309;27;6414;-64
2022/11/23 17:14:53;;;;;;;;;;;;;;;11.60;58.81;96065.72;4225780;27;5693;-63
2022/11/23 17:16:56;;;;;;;;;;;;;;;11.60;59.06;96076.31;4229893;27;5877;-64
2022/11/23 17:18:59;;;;;;;;;;;;;;;11.61;59.14;96077.13;4226467;27;5712;-65
2022/11/23 17:21:01;;;;;;;;;;;;;;;11.62;58.90;96061.03;4226269;27;5613;-63
2022/11/23 17:23:04;;;;;;;;;;;;;;;11.60;58.84;96065.72;4230276;28;5710;-64
2022/11/23 17:25:08;;;;;;;;;;;;;;;11.59;59.16;96069.41;4222486;27;5803;-64
2022/11/23 17:27:20;;;;;;;;;;;;;;;11.58;59.14;96080.22;4224434;27;6755;-65
2022/11/23 17:29:23;;;;;;;;;;;;;;;11.59;59.46;96101.16;4227198;27;5610;-64
2022/11/23 17:31:27;;;;;;;;;;;;;;;11.60;59.42;96110.72;4221742;27;5696;-65